createdAt,value
2018-02-16T00:00:58.084Z,78.08
2018-02-16T00:03:27.463Z,78.10
2018-02-16T00:05:56.351Z,78.09
2018-02-16T00:08:24.827Z,77.96
2018-02-16T00:10:53.316Z,77.75
2018-02-16T00:13:21.743Z,77.64
2018-02-16T00:15:50.229Z,77.55
2018-02-16T00:18:18.850Z,77.48
2018-02-16T00:20:47.284Z,77.35
2018-02-16T00:23:15.702Z,77.09
2018-02-16T00:25:44.626Z,76.81
2018-02-16T00:28:13.143Z,76.57
2018-02-16T00:30:41.821Z,76.23
2018-02-16T00:33:10.633Z,76.02
2018-02-16T00:35:39.204Z,75.89
2018-02-16T00:38:08.046Z,75.63
2018-02-16T00:40:38.044Z,75.50
2018-02-16T00:43:07.224Z,75.24
2018-02-16T00:45:36.275Z,75.02
2018-02-16T00:48:06.544Z,74.93
2018-02-16T00:50:35.361Z,74.77
2018-02-16T00:53:04.363Z,74.73
2018-02-16T00:55:33.920Z,74.55
2018-02-16T00:58:02.539Z,74.48
2018-02-16T01:00:31.382Z,74.40
2018-02-16T01:03:00.348Z,74.34
2018-02-16T01:05:28.944Z,74.30
2018-02-16T01:07:58.380Z,74.25
2018-02-16T01:10:27.061Z,74.40
2018-02-16T01:12:56.795Z,74.53
2018-02-16T01:15:25.481Z,74.75
2018-02-16T01:17:54.070Z,74.90
2018-02-16T01:20:23.199Z,75.02
2018-02-16T01:22:51.874Z,75.23
2018-02-16T01:25:20.639Z,75.45
2018-02-16T01:27:50.512Z,75.75
2018-02-16T01:30:21.012Z,75.91
2018-02-16T01:32:50.057Z,76.08
2018-02-16T01:35:18.689Z,76.24
2018-02-16T01:37:47.275Z,76.32
2018-02-16T01:40:16.057Z,76.44
2018-02-16T01:42:44.746Z,76.40
2018-02-16T01:45:13.504Z,76.42
2018-02-16T01:47:42.447Z,76.43
2018-02-16T01:50:11.322Z,76.50
2018-02-16T01:52:40.377Z,76.56
2018-02-16T01:55:11.562Z,76.57
2018-02-16T01:57:40.968Z,76.56
2018-02-16T02:00:09.839Z,76.56
2018-02-16T02:02:39.414Z,76.53
2018-02-16T02:05:08.268Z,76.49
2018-02-16T02:07:37.503Z,76.27
2018-02-16T02:10:06.448Z,76.17
2018-02-16T02:12:36.025Z,76.17
2018-02-16T02:15:05.593Z,76.21
2018-02-16T02:17:36.134Z,76.11
2018-02-16T02:20:04.567Z,76.12
2018-02-16T02:22:33.041Z,76.03
2018-02-16T02:25:02.004Z,75.95
2018-02-16T02:27:30.456Z,75.92
2018-02-16T02:29:58.880Z,75.74
2018-02-16T02:32:28.277Z,75.69
2018-02-16T02:34:56.758Z,75.66
2018-02-16T02:37:25.239Z,75.59
2018-02-16T02:39:54.276Z,75.47
2018-02-16T02:42:22.743Z,75.36
2018-02-16T02:44:51.228Z,75.37
2018-02-16T02:47:20.508Z,75.32
2018-02-16T02:49:48.933Z,75.34
2018-02-16T02:52:17.498Z,75.14
2018-02-16T02:54:45.997Z,74.94
2018-02-16T02:57:14.427Z,74.85
2018-02-16T02:59:42.891Z,74.76
2018-02-16T03:02:12.153Z,74.68
2018-02-16T03:04:40.628Z,74.90
2018-02-16T03:07:09.154Z,75.04
2018-02-16T03:09:37.965Z,75.03
2018-02-16T03:12:06.418Z,74.99
2018-02-16T03:14:34.963Z,75.06
2018-02-16T03:17:04.731Z,75.07
2018-02-16T03:19:33.211Z,74.95
2018-02-16T03:22:01.845Z,74.91
2018-02-16T03:24:32.605Z,74.82
2018-02-16T03:27:01.205Z,74.87
2018-02-16T03:29:29.695Z,75.08
2018-02-16T03:31:58.352Z,74.95
2018-02-16T03:34:26.926Z,74.98
2018-02-16T03:36:55.798Z,75.20
2018-02-16T03:39:25.774Z,75.07
2018-02-16T03:41:54.186Z,74.79
2018-02-16T03:44:22.635Z,74.67
2018-02-16T03:46:51.805Z,75.08
2018-02-16T03:49:20.225Z,75.18
2018-02-16T03:51:48.678Z,75.12
2018-02-16T03:54:18.253Z,75.40
2018-02-16T03:56:46.761Z,75.18
2018-02-16T03:59:15.185Z,75.45
2018-02-16T04:01:43.649Z,75.28
2018-02-16T04:04:12.113Z,74.99
2018-02-16T04:06:40.590Z,74.80
2018-02-16T04:09:09.064Z,74.72
2018-02-16T04:11:37.980Z,74.98
2018-02-16T04:14:06.778Z,74.85
2018-02-16T04:16:35.297Z,74.80
2018-02-16T04:19:03.881Z,74.90
2018-02-16T04:21:33.245Z,74.83
2018-02-16T04:24:02.726Z,74.81
2018-02-16T04:26:31.230Z,74.85
2018-02-16T04:28:59.652Z,74.97
2018-02-16T04:31:28.118Z,75.44
2018-02-16T04:33:56.604Z,75.64
2018-02-16T04:36:25.086Z,75.52
2018-02-16T04:38:54.348Z,75.64
2018-02-16T04:41:22.795Z,75.66
2018-02-16T04:43:51.844Z,75.74
2018-02-16T04:46:20.310Z,75.64
2018-02-16T04:48:48.727Z,75.51
2018-02-16T04:51:17.292Z,75.34
2018-02-16T04:53:45.797Z,75.45
2018-02-16T04:56:14.200Z,76.02
2018-02-16T04:58:43.242Z,75.91
2018-02-16T05:01:11.936Z,75.95
2018-02-16T05:03:40.342Z,75.91
2018-02-16T05:06:08.759Z,75.85
2018-02-16T05:08:37.422Z,75.74
2018-02-16T05:11:05.899Z,75.55
2018-02-16T05:13:34.466Z,75.74
2018-02-16T05:16:03.775Z,75.76
2018-02-16T05:18:32.261Z,75.62
2018-02-16T05:21:00.698Z,75.54
2018-02-16T05:23:30.195Z,75.48
2018-02-16T05:25:58.667Z,75.50
2018-02-16T05:28:27.086Z,75.56
2018-02-16T05:30:55.603Z,75.79
2018-02-16T05:33:24.060Z,75.68
2018-02-16T05:35:52.526Z,75.69
2018-02-16T05:38:21.733Z,75.87
2018-02-16T05:40:50.166Z,75.62
2018-02-16T05:43:18.726Z,75.46
2018-02-16T05:45:47.310Z,75.51
2018-02-16T05:48:15.752Z,75.59
2018-02-16T05:50:44.572Z,75.50
2018-02-16T05:53:13.767Z,75.49
2018-02-16T05:55:42.201Z,75.84
2018-02-16T05:58:10.827Z,75.73
2018-02-16T06:00:39.471Z,76.08
2018-02-16T06:03:07.959Z,75.79
2018-02-16T06:05:36.924Z,75.50
2018-02-16T06:08:05.670Z,75.49
2018-02-16T06:10:34.260Z,75.52
2018-02-16T06:13:02.870Z,75.49
2018-02-16T06:15:31.508Z,75.37
2018-02-16T06:18:00.137Z,75.30
2018-02-16T06:20:28.658Z,75.22
2018-02-16T06:23:00.994Z,75.28
2018-02-16T06:25:29.433Z,75.27
2018-02-16T06:27:58.030Z,75.19
2018-02-16T06:30:26.541Z,75.08
2018-02-16T06:32:54.965Z,74.96
2018-02-16T06:35:23.394Z,75.08
2018-02-16T06:37:52.847Z,74.84
2018-02-16T06:40:22.299Z,74.57
2018-02-16T06:42:50.800Z,74.78
2018-02-16T06:45:19.325Z,74.72
2018-02-16T06:47:47.942Z,74.61
2018-02-16T06:50:16.476Z,74.50
2018-02-16T06:52:45.066Z,74.76
2018-02-16T06:55:13.558Z,74.73
2018-02-16T06:57:42.022Z,75.25
2018-02-16T07:00:10.625Z,75.05
2018-02-16T07:02:39.308Z,74.88
2018-02-16T07:05:07.782Z,75.06
2018-02-16T07:07:37.292Z,75.13
2018-02-16T07:10:08.292Z,74.98
2018-02-16T07:12:36.961Z,74.84
2018-02-16T07:15:05.508Z,74.82
2018-02-16T07:17:34.255Z,74.63
2018-02-16T07:22:31.021Z,74.85
2018-02-16T07:24:59.623Z,75.01
2018-02-16T07:27:28.047Z,74.58
2018-02-16T07:29:56.537Z,74.27
2018-02-16T07:32:24.959Z,74.33
2018-02-16T07:34:53.369Z,74.30
2018-02-16T07:37:22.921Z,74.01
2018-02-16T07:39:51.385Z,74.07
2018-02-16T07:42:19.803Z,73.85
2018-02-16T07:44:49.045Z,74.19
2018-02-16T07:47:17.518Z,74.23
2018-02-16T07:49:45.920Z,74.11
2018-02-16T07:52:14.469Z,73.91
2018-02-16T07:54:43.130Z,73.79
2018-02-16T07:57:11.932Z,73.76
2018-02-16T07:59:40.656Z,73.68
2018-02-16T08:02:09.214Z,73.59
2018-02-16T08:04:37.689Z,73.93
2018-02-16T08:07:06.403Z,73.90
2018-02-16T08:09:35.015Z,73.50
2018-02-16T08:12:03.536Z,73.42
2018-02-16T08:14:32.221Z,73.18
2018-02-16T08:17:00.700Z,72.88
2018-02-16T08:19:29.199Z,73.10
2018-02-16T08:21:57.668Z,73.00
2018-02-16T08:24:26.152Z,72.91
2018-02-16T08:26:54.573Z,72.55
2018-02-16T08:29:23.428Z,72.51
2018-02-16T08:31:51.868Z,72.30
2018-02-16T08:34:20.326Z,71.85
2018-02-16T08:36:48.819Z,71.92
2018-02-16T08:39:17.251Z,71.85
2018-02-16T08:41:45.778Z,71.98
2018-02-16T08:44:14.767Z,71.28
2018-02-16T08:46:43.385Z,70.02
2018-02-16T08:49:12.074Z,68.76
2018-02-16T08:51:40.919Z,67.23
2018-02-16T08:54:09.745Z,65.95
2018-02-16T08:56:39.336Z,65.30
2018-02-16T08:59:09.060Z,64.09
2018-02-16T09:01:37.620Z,62.73
2018-02-16T09:04:06.137Z,61.22
2018-02-16T09:06:34.950Z,60.10
2018-02-16T09:09:03.615Z,58.59
2018-02-16T09:11:32.198Z,58.22
2018-02-16T09:14:00.793Z,55.91
2018-02-16T09:16:29.282Z,56.07
2018-02-16T09:18:58.509Z,56.66
2018-02-16T09:21:27.500Z,55.94
2018-02-16T09:23:55.925Z,55.35
2018-02-16T09:26:24.361Z,54.68
2018-02-16T09:28:52.896Z,55.29
2018-02-16T09:31:21.355Z,57.10
2018-02-16T09:33:49.808Z,59.04
2018-02-16T09:36:18.929Z,59.48
2018-02-16T09:38:47.419Z,60.30
2018-02-16T09:41:15.889Z,60.33
2018-02-16T09:43:44.424Z,61.08
2018-02-16T09:46:13.834Z,59.72
2018-02-16T09:48:43.888Z,58.32
2018-02-16T09:51:13.488Z,57.47
2018-02-16T09:53:42.064Z,58.70
2018-02-16T09:56:14.509Z,60.02
2018-02-16T09:58:43.320Z,61.62
2018-02-16T10:01:12.131Z,63.29
2018-02-16T10:03:41.245Z,61.41
2018-02-16T10:06:09.876Z,58.19
2018-02-16T10:08:38.551Z,56.46
2018-02-16T10:11:07.205Z,54.75
2018-02-16T10:13:35.774Z,52.55
2018-02-16T10:16:04.592Z,51.73
2018-02-16T10:18:33.239Z,50.64
2018-02-16T10:21:02.231Z,50.72
2018-02-16T10:23:30.684Z,50.57
2018-02-16T10:26:01.181Z,49.81
2018-02-16T10:28:29.770Z,48.72
2018-02-16T10:30:58.207Z,48.39
2018-02-16T10:33:26.785Z,49.12
2018-02-16T10:35:55.249Z,49.84
2018-02-16T10:38:24.720Z,50.76
2018-02-16T10:40:53.343Z,51.20
2018-02-16T10:43:21.918Z,51.15
2018-02-16T10:45:50.374Z,50.92
2018-02-16T10:48:18.925Z,50.54
2018-02-16T10:50:48.100Z,50.13
2018-02-16T10:53:16.560Z,49.30
2018-02-16T10:55:45.403Z,48.20
2018-02-16T10:58:13.853Z,47.90
2018-02-16T11:00:48.349Z,49.88
2018-02-16T11:03:23.412Z,51.54
2018-02-16T11:05:53.761Z,53.84
2018-02-16T11:11:23.694Z,53.66
2018-02-16T11:13:52.125Z,52.50
2018-02-16T11:16:20.569Z,53.23
2018-02-16T11:18:49.038Z,55.16
2018-02-16T11:21:18.330Z,55.64
2018-02-16T11:23:47.299Z,56.40
2018-02-16T11:26:15.833Z,56.43
2018-02-16T11:28:44.306Z,55.33
2018-02-16T11:31:12.822Z,52.41
2018-02-16T11:33:42.132Z,51.58
2018-02-16T11:36:10.594Z,51.10
2018-02-16T11:38:39.132Z,50.29
2018-02-16T11:41:07.799Z,52.34
2018-02-16T11:43:36.518Z,53.59
2018-02-16T11:46:05.409Z,54.93
2018-02-16T11:48:33.989Z,56.39
2018-02-16T11:51:02.669Z,57.48
2018-02-16T11:53:31.664Z,57.27
2018-02-16T11:56:00.966Z,56.92
2018-02-16T11:58:29.379Z,56.91
2018-02-16T12:00:57.803Z,56.61
2018-02-16T12:03:26.427Z,56.53
2018-02-16T12:05:54.894Z,57.15
2018-02-16T12:08:23.330Z,57.59
2018-02-16T12:10:52.645Z,58.32
2018-02-16T12:13:21.250Z,59.09
2018-02-16T12:15:49.785Z,60.10
2018-02-16T12:18:18.312Z,60.59
2018-02-16T12:20:46.853Z,60.58
2018-02-16T12:23:15.325Z,60.62
2018-02-16T12:25:43.914Z,60.44
2018-02-16T12:28:12.601Z,60.02
2018-02-16T12:30:42.278Z,60.28
2018-02-16T12:33:11.066Z,60.27
2018-02-16T12:35:39.583Z,59.75
2018-02-16T12:38:08.067Z,59.52
2018-02-16T12:40:36.850Z,59.79
2018-02-16T12:43:05.454Z,60.26
2018-02-16T12:45:34.085Z,60.56
2018-02-16T12:48:03.402Z,60.68
2018-02-16T12:50:31.899Z,60.79
2018-02-16T12:53:00.351Z,60.92
2018-02-16T12:55:29.706Z,60.75
2018-02-16T12:57:58.191Z,60.83
2018-02-16T13:00:26.644Z,60.66
2018-02-16T13:02:55.481Z,60.31
2018-02-16T13:05:23.997Z,60.39
2018-02-16T13:07:52.448Z,60.29
2018-02-16T13:10:21.973Z,60.67
2018-02-16T13:12:50.452Z,60.91
2018-02-16T13:15:18.889Z,61.06
2018-02-16T13:17:48.318Z,60.92
2018-02-16T13:20:16.790Z,60.68
2018-02-16T13:22:45.201Z,60.71
2018-02-16T13:25:13.863Z,60.61
2018-02-16T13:27:42.374Z,60.86
2018-02-16T13:30:10.937Z,61.19
2018-02-16T13:32:39.444Z,61.53
2018-02-16T13:35:09.021Z,61.60
2018-02-16T13:37:37.658Z,61.15
2018-02-16T13:40:07.221Z,60.39
2018-02-16T13:42:35.863Z,60.22
2018-02-16T13:45:04.368Z,60.63
2018-02-16T13:47:33.515Z,60.63
2018-02-16T13:50:02.667Z,61.27
2018-02-16T13:52:31.156Z,61.49
2018-02-16T13:54:59.677Z,61.60
2018-02-16T13:57:28.089Z,61.62
2018-02-16T13:59:56.570Z,61.92
2018-02-16T14:02:25.084Z,62.38
2018-02-16T14:04:53.639Z,62.87
2018-02-16T14:07:22.363Z,63.21
2018-02-16T14:09:50.868Z,63.48
2018-02-16T14:12:19.352Z,63.32
2018-02-16T14:14:47.937Z,63.37
2018-02-16T14:17:16.457Z,63.20
2018-02-16T14:19:44.968Z,63.43
2018-02-16T14:22:13.516Z,63.48
2018-02-16T14:24:42.892Z,63.30
2018-02-16T14:27:11.546Z,63.28
2018-02-16T14:29:40.072Z,63.41
2018-02-16T14:32:08.683Z,63.45
2018-02-16T14:34:37.185Z,63.49
2018-02-16T14:37:05.770Z,63.58
2018-02-16T14:39:34.658Z,63.71
2018-02-16T14:42:04.377Z,63.95
2018-02-16T14:44:33.025Z,64.05
2018-02-16T14:47:01.772Z,63.87
2018-02-16T14:49:30.217Z,64.23
2018-02-16T14:51:58.651Z,64.32
2018-02-16T14:54:27.922Z,64.29
2018-02-16T14:56:56.381Z,64.33
2018-02-16T14:59:24.851Z,64.55
2018-02-16T15:01:54.105Z,65.06
2018-02-16T15:04:22.534Z,65.18
2018-02-16T15:06:51.013Z,65.20
2018-02-16T15:09:19.483Z,65.45
2018-02-16T15:11:47.976Z,65.54
2018-02-16T15:14:16.416Z,65.42
2018-02-16T15:16:45.295Z,65.42
2018-02-16T15:19:13.778Z,65.46
2018-02-16T15:21:42.491Z,65.34
2018-02-16T15:24:11.549Z,65.35
2018-02-16T15:26:40.034Z,65.34
2018-02-16T15:29:08.632Z,65.41
2018-02-16T15:31:37.319Z,65.54
2018-02-16T15:34:05.812Z,65.59
2018-02-16T15:36:34.571Z,65.93
2018-02-16T15:39:03.463Z,66.15
2018-02-16T15:41:31.901Z,66.49
2018-02-16T15:44:00.320Z,66.62
2018-02-16T15:46:28.858Z,66.87
2018-02-16T15:48:57.272Z,66.87
2018-02-16T15:51:25.757Z,66.86
2018-02-16T15:53:54.751Z,66.96
2018-02-16T15:56:23.226Z,67.08
2018-02-16T15:58:51.702Z,67.22
2018-02-16T16:01:20.158Z,67.29
2018-02-16T16:03:48.613Z,67.40
2018-02-16T16:06:17.807Z,67.42
2018-02-16T16:08:46.319Z,67.48
2018-02-16T16:11:14.733Z,67.62
2018-02-16T16:13:43.287Z,67.80
2018-02-16T16:16:11.836Z,67.87
2018-02-16T16:18:40.423Z,67.91
2018-02-16T16:21:08.965Z,67.90
2018-02-16T16:23:37.653Z,67.87
2018-02-16T16:26:06.356Z,68.00
2018-02-16T16:28:34.925Z,68.22
2018-02-16T16:31:07.041Z,68.34
2018-02-16T16:33:36.296Z,68.55
2018-02-16T16:36:05.052Z,68.91
2018-02-16T16:38:34.063Z,69.04
2018-02-16T16:41:04.009Z,69.32
2018-02-16T16:43:32.624Z,69.38
2018-02-16T16:46:01.256Z,69.54
2018-02-16T16:48:29.775Z,69.67
2018-02-16T16:50:58.220Z,69.85
2018-02-16T16:53:27.098Z,70.00
2018-02-16T16:55:55.518Z,69.95
2018-02-16T16:58:23.957Z,70.07
2018-02-16T17:00:53.214Z,70.03
2018-02-16T17:03:21.663Z,70.06
2018-02-16T17:05:50.105Z,70.20
2018-02-16T17:08:18.596Z,70.24
2018-02-16T17:10:47.002Z,70.24
2018-02-16T17:13:15.492Z,70.29
2018-02-16T17:15:44.058Z,70.38
2018-02-16T17:18:12.641Z,70.55
2018-02-16T17:20:41.393Z,70.60
2018-02-16T17:23:10.833Z,70.70
2018-02-16T17:25:39.372Z,70.59
2018-02-16T17:28:08.062Z,70.54
2018-02-16T17:30:37.206Z,70.62
2018-02-16T17:33:05.749Z,70.61
2018-02-16T17:35:34.256Z,70.74
2018-02-16T17:38:02.809Z,70.69
2018-02-16T17:40:31.354Z,70.63
2018-02-16T17:42:59.808Z,70.63
2018-02-16T17:45:28.254Z,70.67
2018-02-16T17:47:56.789Z,70.67
2018-02-16T17:50:25.234Z,70.58
2018-02-16T17:55:27.143Z,70.81
2018-02-16T17:57:55.606Z,70.81
2018-02-16T18:00:24.273Z,70.86
2018-02-16T18:02:52.780Z,71.02
2018-02-16T18:05:22.088Z,71.01
2018-02-16T18:07:50.500Z,71.10
2018-02-16T18:10:18.971Z,71.18
2018-02-16T18:12:47.866Z,71.07
2018-02-16T18:15:17.472Z,71.05
2018-02-16T18:17:46.056Z,71.16
2018-02-16T18:20:14.709Z,71.25
2018-02-16T18:22:43.636Z,71.24
2018-02-16T18:25:12.221Z,71.27
2018-02-16T18:27:41.354Z,71.51
2018-02-16T18:30:09.953Z,71.68
2018-02-16T18:32:38.621Z,71.83
2018-02-16T18:35:09.450Z,72.06
2018-02-16T18:37:38.409Z,72.12
2018-02-16T18:40:07.107Z,72.31
2018-02-16T18:42:36.690Z,72.35
2018-02-16T18:45:05.175Z,72.45
2018-02-16T18:47:34.804Z,72.45
2018-02-16T18:50:03.788Z,72.57
2018-02-16T18:52:32.577Z,72.63
2018-02-16T18:55:01.082Z,72.64
2018-02-16T18:57:30.282Z,72.57
2018-02-16T18:59:58.734Z,72.67
2018-02-16T19:02:27.400Z,72.78
2018-02-16T19:04:57.400Z,72.77
2018-02-16T19:07:26.758Z,72.90
2018-02-16T19:09:55.202Z,73.05
2018-02-16T19:12:23.785Z,73.20
2018-02-16T19:14:52.232Z,73.33
2018-02-16T19:17:20.682Z,73.47
2018-02-16T19:19:49.488Z,73.53
2018-02-16T19:22:17.908Z,73.59
2018-02-16T19:24:46.396Z,73.59
2018-02-16T19:27:14.971Z,73.57
2018-02-16T19:29:43.378Z,73.60
2018-02-16T19:32:11.942Z,73.69
2018-02-16T19:34:40.732Z,73.89
2018-02-16T19:37:10.770Z,73.91
2018-02-16T19:39:39.326Z,73.96
2018-02-16T19:42:08.027Z,73.95
2018-02-16T19:44:36.483Z,74.00
2018-02-16T19:47:04.958Z,74.14
2018-02-16T19:49:34.673Z,74.28
2018-02-16T19:52:03.171Z,74.37
2018-02-16T19:54:31.844Z,74.33
2018-02-16T19:57:00.728Z,74.35
2018-02-16T19:59:29.350Z,74.32
2018-02-16T20:01:57.829Z,74.52
2018-02-16T20:04:27.217Z,74.59
2018-02-16T20:06:55.705Z,74.56
2018-02-16T20:09:24.154Z,74.47
2018-02-16T20:11:52.628Z,74.45
2018-02-16T20:14:21.148Z,74.45
2018-02-16T20:16:49.599Z,74.40
2018-02-16T20:19:18.335Z,74.33
2018-02-16T20:21:46.857Z,74.26
2018-02-16T20:24:15.304Z,74.29
2018-02-16T20:26:44.823Z,74.39
2018-02-16T20:29:13.241Z,74.30
2018-02-16T20:31:41.800Z,74.29
2018-02-16T20:34:10.594Z,74.33
2018-02-16T20:36:39.172Z,74.32
2018-02-16T20:39:07.648Z,74.33
2018-02-16T20:41:36.287Z,74.39
2018-02-16T20:44:04.835Z,74.36
2018-02-16T20:46:34.098Z,74.33
2018-02-16T20:49:03.771Z,74.35
2018-02-16T20:51:32.624Z,74.43
2018-02-16T20:54:01.132Z,74.57
2018-02-16T20:56:29.737Z,74.58
2018-02-16T20:58:58.213Z,74.52
2018-02-16T21:01:26.935Z,74.74
2018-02-16T21:03:56.390Z,74.95
2018-02-16T21:06:25.603Z,74.96
2018-02-16T21:08:57.101Z,74.95
2018-02-16T21:11:26.087Z,74.93
2018-02-16T21:13:54.980Z,74.95
2018-02-16T21:16:24.380Z,74.93
2018-02-16T21:18:55.536Z,74.94
2018-02-16T21:21:24.426Z,75.03
2018-02-16T21:23:52.923Z,75.13
2018-02-16T21:26:22.196Z,75.21
2018-02-16T21:28:50.601Z,75.34
2018-02-16T21:31:19.082Z,75.44
2018-02-16T21:33:48.306Z,75.63
2018-02-16T21:36:16.767Z,75.78
2018-02-16T21:38:45.326Z,75.72
2018-02-16T21:41:14.406Z,75.72
2018-02-16T21:43:43.210Z,75.80
2018-02-16T21:46:11.849Z,75.82
2018-02-16T21:48:40.813Z,75.98
2018-02-16T21:51:09.606Z,76.07
2018-02-16T21:53:38.595Z,76.14
2018-02-16T21:56:07.769Z,76.14
2018-02-16T21:58:36.540Z,76.10
2018-02-16T22:01:05.038Z,76.04
2018-02-16T22:03:35.157Z,75.94
2018-02-16T22:06:03.919Z,75.86
2018-02-16T22:08:33.345Z,75.89
2018-02-16T22:11:01.992Z,75.97
2018-02-16T22:13:30.429Z,76.03
2018-02-16T22:15:58.853Z,76.12
2018-02-16T22:18:27.617Z,76.10
2018-02-16T22:20:56.077Z,76.10
2018-02-16T22:23:24.512Z,76.06
2018-02-16T22:25:53.717Z,75.94
2018-02-16T22:28:22.125Z,75.83
2018-02-16T22:30:50.533Z,75.54
2018-02-16T22:33:19.962Z,75.38
2018-02-16T22:35:49.329Z,75.21
2018-02-16T22:38:17.785Z,75.05
2018-02-16T22:40:47.058Z,74.99
2018-02-16T22:43:15.468Z,74.98
2018-02-16T22:45:44.021Z,74.86
2018-02-16T22:48:12.821Z,74.84
2018-02-16T22:50:41.414Z,74.69
2018-02-16T22:53:10.019Z,74.57
2018-02-16T22:55:39.119Z,74.38
2018-02-16T22:58:07.687Z,74.27
2018-02-16T23:00:36.244Z,74.23
2018-02-16T23:03:06.359Z,74.25
2018-02-16T23:05:34.945Z,74.20
2018-02-16T23:08:03.395Z,74.24
2018-02-16T23:10:32.755Z,74.18
2018-02-16T23:13:01.256Z,74.12
2018-02-16T23:15:29.698Z,74.10
2018-02-16T23:17:58.240Z,74.11
2018-02-16T23:20:26.777Z,74.23
2018-02-16T23:22:55.209Z,74.12
2018-02-16T23:25:24.160Z,74.25
2018-02-16T23:27:53.017Z,74.36
2018-02-16T23:30:21.460Z,74.30
2018-02-16T23:32:49.962Z,74.24
2018-02-16T23:35:18.392Z,74.28
2018-02-16T23:37:46.839Z,74.28
2018-02-16T23:40:15.324Z,74.34
2018-02-16T23:42:43.803Z,74.49
2018-02-16T23:45:12.491Z,74.59
2018-02-16T23:47:41.346Z,74.59
2018-02-16T23:50:09.858Z,74.52
2018-02-16T23:52:38.335Z,74.44
2018-02-16T23:55:07.156Z,74.36
2018-02-16T23:57:36.409Z,74.41
